createdAt,value
2023-03-20T00:00:08.768Z,13.27
2023-03-20T00:01:08.789Z,13.33
2023-03-20T00:02:08.749Z,13.27
2023-03-20T00:03:08.733Z,13.31
2023-03-20T00:04:08.735Z,13.31
2023-03-20T00:05:08.820Z,13.31
2023-03-20T00:06:08.709Z,13.31
2023-03-20T00:07:08.741Z,13.35
2023-03-20T00:08:08.680Z,13.37
2023-03-20T00:09:08.668Z,13.38
2023-03-20T00:10:08.661Z,13.39
2023-03-20T00:11:08.648Z,13.38
2023-03-20T00:12:08.641Z,13.37
2023-03-20T00:13:08.648Z,13.33
2023-03-20T00:14:08.610Z,13.35
2023-03-20T00:15:08.601Z,13.30
2023-03-20T00:16:08.621Z,13.28
2023-03-20T00:17:08.580Z,13.22
2023-03-20T00:18:08.650Z,13.20
2023-03-20T00:19:08.548Z,13.19
2023-03-20T00:20:08.544Z,13.16
2023-03-20T00:21:08.534Z,13.15
2023-03-20T00:22:08.521Z,13.13
2023-03-20T00:23:08.500Z,13.13
2023-03-20T00:24:08.515Z,13.04
2023-03-20T00:25:08.479Z,13.04
2023-03-20T00:26:08.478Z,13.04
2023-03-20T00:27:08.460Z,12.97
2023-03-20T00:28:08.464Z,13.00
2023-03-20T00:29:08.459Z,12.98
2023-03-20T00:30:08.434Z,12.94
2023-03-20T00:31:08.458Z,12.95
2023-03-20T00:32:08.403Z,12.94
2023-03-20T00:33:08.444Z,12.94
2023-03-20T00:34:08.379Z,12.87
2023-03-20T00:35:08.392Z,12.86
2023-03-20T00:36:08.373Z,12.85
2023-03-20T00:37:08.341Z,12.85
2023-03-20T00:38:08.340Z,12.82
2023-03-20T00:39:08.320Z,12.83
2023-03-20T00:40:08.310Z,12.83
2023-03-20T00:41:08.320Z,12.83
2023-03-20T00:42:08.309Z,12.80
2023-03-20T00:43:08.282Z,12.83
2023-03-20T00:44:08.272Z,12.85
2023-03-20T00:45:08.255Z,12.94
2023-03-20T00:46:08.245Z,12.94
2023-03-20T00:47:08.370Z,12.97
2023-03-20T00:48:08.224Z,13.04
2023-03-20T00:49:08.201Z,12.95
2023-03-20T00:50:08.204Z,12.97
2023-03-20T00:51:08.194Z,12.98
2023-03-20T00:52:08.181Z,12.98
2023-03-20T00:53:08.200Z,12.86
2023-03-20T00:54:08.152Z,12.91
2023-03-20T00:55:08.132Z,13.08
2023-03-20T00:56:08.131Z,13.15
2023-03-20T00:57:08.118Z,13.16
2023-03-20T00:58:08.110Z,13.18
2023-03-20T00:59:08.125Z,13.20
2023-03-20T01:00:08.085Z,13.23
2023-03-20T01:01:08.102Z,13.05
2023-03-20T01:02:08.071Z,13.04
2023-03-20T01:03:08.052Z,13.05
2023-03-20T01:04:08.042Z,13.03
2023-03-20T01:05:08.042Z,13.04
2023-03-20T01:06:08.014Z,13.05
2023-03-20T01:07:08.003Z,13.08
2023-03-20T01:08:07.992Z,13.00
2023-03-20T01:09:07.981Z,13.09
2023-03-20T01:10:08.010Z,13.12
2023-03-20T01:11:07.951Z,13.19
2023-03-20T01:12:08.019Z,13.15
2023-03-20T01:13:07.931Z,13.23
2023-03-20T01:14:07.921Z,13.33
2023-03-20T01:15:07.912Z,13.30
2023-03-20T01:16:08.009Z,13.33
2023-03-20T01:17:07.879Z,13.39
2023-03-20T01:18:07.871Z,13.42
2023-03-20T01:19:07.868Z,13.52
2023-03-20T01:20:07.850Z,13.56
2023-03-20T01:21:07.840Z,13.49
2023-03-20T01:22:07.880Z,13.53
2023-03-20T01:23:07.823Z,13.62
2023-03-20T01:24:07.801Z,13.72
2023-03-20T01:25:07.797Z,13.70
2023-03-20T01:26:07.779Z,13.60
2023-03-20T01:27:07.768Z,13.63
2023-03-20T01:28:07.779Z,13.68
2023-03-20T01:29:07.746Z,13.74
2023-03-20T01:30:07.737Z,13.81
2023-03-20T01:31:07.721Z,13.79
2023-03-20T01:32:07.791Z,13.81
2023-03-20T01:33:07.770Z,13.77
2023-03-20T01:34:07.689Z,13.75
2023-03-20T01:35:07.686Z,13.74
2023-03-20T01:36:07.696Z,13.72
2023-03-20T01:37:07.648Z,13.67
2023-03-20T01:38:07.638Z,13.74
2023-03-20T01:39:07.697Z,13.74
2023-03-20T01:40:07.623Z,13.74
2023-03-20T01:41:07.607Z,13.79
2023-03-20T01:42:07.621Z,13.78
2023-03-20T01:43:07.588Z,13.83
2023-03-20T01:44:07.568Z,13.85
2023-03-20T01:45:07.586Z,13.83
2023-03-20T01:46:07.587Z,13.78
2023-03-20T01:47:07.540Z,13.77
2023-03-20T01:48:07.531Z,13.77
2023-03-20T01:49:07.520Z,13.74
2023-03-20T01:50:07.570Z,13.72
2023-03-20T01:51:07.495Z,13.70
2023-03-20T01:52:07.483Z,13.75
2023-03-20T01:53:07.477Z,13.77
2023-03-20T01:54:07.469Z,13.74
2023-03-20T01:55:07.450Z,13.71
2023-03-20T01:56:07.586Z,13.68
2023-03-20T01:57:07.422Z,13.79
2023-03-20T01:58:07.419Z,13.90
2023-03-20T01:59:07.406Z,13.95
2023-03-20T02:00:07.390Z,13.90
2023-03-20T02:01:07.407Z,13.92
2023-03-20T02:02:07.406Z,13.92
2023-03-20T02:03:07.351Z,13.87
2023-03-20T02:04:07.341Z,13.89
2023-03-20T02:05:07.369Z,13.85
2023-03-20T02:06:07.321Z,13.81
2023-03-20T02:07:07.316Z,13.85
2023-03-20T02:08:07.332Z,13.90
2023-03-20T02:09:07.285Z,13.75
2023-03-20T02:10:07.285Z,13.75
2023-03-20T02:11:07.270Z,13.72
2023-03-20T02:12:07.251Z,13.78
2023-03-20T02:13:07.243Z,13.81
2023-03-20T02:14:07.261Z,13.83
2023-03-20T02:15:07.221Z,13.90
2023-03-20T02:16:07.210Z,13.92
2023-03-20T02:17:07.199Z,13.78
2023-03-20T02:18:07.180Z,13.62
2023-03-20T02:19:07.181Z,13.57
2023-03-20T02:20:07.180Z,13.57
2023-03-20T02:21:07.152Z,13.54
2023-03-20T02:22:07.141Z,13.60
2023-03-20T02:23:07.131Z,13.60
2023-03-20T02:24:07.113Z,13.57
2023-03-20T02:25:07.127Z,13.56
2023-03-20T02:26:07.089Z,13.41
2023-03-20T02:27:07.098Z,13.49
2023-03-20T02:28:07.070Z,13.54
2023-03-20T02:29:07.050Z,13.46
2023-03-20T02:30:07.067Z,13.46
2023-03-20T02:31:07.108Z,13.44
2023-03-20T02:32:07.023Z,13.41
2023-03-20T02:33:07.112Z,13.39
2023-03-20T02:34:06.999Z,13.33
2023-03-20T02:35:06.993Z,13.33
2023-03-20T02:36:07.030Z,13.28
2023-03-20T02:37:06.968Z,13.31
2023-03-20T02:38:06.954Z,13.37
2023-03-20T02:39:06.949Z,13.38
2023-03-20T02:40:06.934Z,13.38
2023-03-20T02:41:06.992Z,13.44
2023-03-20T02:42:06.919Z,13.49
2023-03-20T02:43:06.891Z,13.49
2023-03-20T02:44:06.880Z,13.52
2023-03-20T02:45:06.879Z,13.46
2023-03-20T02:46:06.934Z,13.52
2023-03-20T02:47:06.881Z,13.53
2023-03-20T02:48:06.842Z,13.53
2023-03-20T02:49:06.829Z,13.50
2023-03-20T02:50:06.828Z,13.46
2023-03-20T02:51:06.813Z,13.49
2023-03-20T02:52:06.791Z,13.52
2023-03-20T02:53:06.814Z,13.52
2023-03-20T02:54:06.772Z,13.59
2023-03-20T02:55:06.760Z,13.56
2023-03-20T02:56:06.750Z,13.60
2023-03-20T02:57:06.744Z,13.72
2023-03-20T02:58:06.729Z,13.75
2023-03-20T02:59:06.734Z,13.65
2023-03-20T03:00:06.702Z,13.57
2023-03-20T03:01:06.691Z,13.56
2023-03-20T03:02:06.701Z,13.60
2023-03-20T03:03:06.684Z,13.63
2023-03-20T03:04:06.681Z,13.67
2023-03-20T03:05:06.649Z,13.54
2023-03-20T03:06:06.635Z,13.57
2023-03-20T03:07:06.636Z,13.63
2023-03-20T03:08:06.620Z,13.60
2023-03-20T03:09:06.606Z,13.57
2023-03-20T03:10:06.683Z,13.50
2023-03-20T03:11:06.584Z,13.52
2023-03-20T03:12:06.594Z,13.59
2023-03-20T03:13:06.552Z,13.68
2023-03-20T03:14:06.561Z,13.72
2023-03-20T03:15:06.532Z,13.72
2023-03-20T03:16:06.600Z,13.71
2023-03-20T03:17:06.529Z,13.77
2023-03-20T03:18:06.730Z,13.63
2023-03-20T03:19:06.511Z,13.65
2023-03-20T03:20:06.470Z,13.57
2023-03-20T03:21:06.461Z,13.65
2023-03-20T03:22:06.474Z,13.70
2023-03-20T03:23:06.441Z,13.72
2023-03-20T03:24:06.429Z,13.68
2023-03-20T03:25:06.427Z,13.74
2023-03-20T03:26:06.402Z,13.70
2023-03-20T03:27:06.441Z,13.72
2023-03-20T03:28:06.390Z,13.77
2023-03-20T03:29:06.373Z,13.79
2023-03-20T03:30:06.351Z,13.83
2023-03-20T03:31:06.384Z,13.86
2023-03-20T03:32:06.339Z,13.89
2023-03-20T03:33:06.360Z,13.90
2023-03-20T03:34:06.358Z,13.89
2023-03-20T03:35:06.308Z,13.89
2023-03-20T03:36:06.306Z,13.93
2023-03-20T03:37:06.280Z,13.90
2023-03-20T03:38:06.280Z,13.85
2023-03-20T03:39:06.275Z,13.90
2023-03-20T03:40:06.239Z,13.95
2023-03-20T03:41:06.240Z,13.97
2023-03-20T03:42:06.225Z,13.96
2023-03-20T03:43:06.210Z,14.03
2023-03-20T03:44:06.221Z,14.00
2023-03-20T03:45:06.192Z,13.97
2023-03-20T03:46:06.192Z,13.99
2023-03-20T03:47:06.172Z,13.97
2023-03-20T03:48:06.153Z,13.95
2023-03-20T03:49:06.151Z,13.99
2023-03-20T03:50:06.162Z,14.04
2023-03-20T03:51:06.123Z,14.05
2023-03-20T03:52:06.110Z,14.07
2023-03-20T03:53:06.092Z,14.05
2023-03-20T03:54:06.090Z,14.03
2023-03-20T03:55:06.086Z,14.03
2023-03-20T03:56:06.127Z,14.04
2023-03-20T03:57:06.055Z,14.03
2023-03-20T03:58:06.048Z,14.00
2023-03-20T03:59:06.038Z,13.99
2023-03-20T04:00:06.014Z,13.96
2023-03-20T04:01:06.033Z,13.96
2023-03-20T04:02:06.013Z,13.86
2023-03-20T04:03:05.985Z,13.78
2023-03-20T04:04:05.979Z,13.81
2023-03-20T04:05:06.015Z,13.78
2023-03-20T04:06:05.963Z,13.78
2023-03-20T04:07:05.959Z,13.85
2023-03-20T04:08:05.928Z,13.77
2023-03-20T04:09:05.917Z,13.78
2023-03-20T04:10:05.907Z,13.83
2023-03-20T04:11:05.893Z,13.79
2023-03-20T04:12:05.909Z,13.77
2023-03-20T04:13:05.867Z,13.85
2023-03-20T04:14:05.855Z,13.81
2023-03-20T04:15:05.846Z,13.79
2023-03-20T04:16:05.867Z,13.77
2023-03-20T04:17:05.825Z,13.79
2023-03-20T04:18:05.836Z,13.68
2023-03-20T04:19:05.806Z,13.79
2023-03-20T04:20:05.802Z,13.89
2023-03-20T04:21:05.784Z,13.90
2023-03-20T04:22:05.765Z,13.83
2023-03-20T04:23:05.757Z,13.89
2023-03-20T04:24:05.782Z,13.85
2023-03-20T04:25:05.739Z,13.86
2023-03-20T04:26:05.720Z,13.90
2023-03-20T04:27:05.720Z,13.93
2023-03-20T04:28:05.706Z,13.81
2023-03-20T04:29:05.686Z,13.77
2023-03-20T04:30:05.691Z,13.75
2023-03-20T04:31:05.667Z,13.79
2023-03-20T04:32:05.660Z,13.87
2023-03-20T04:33:05.674Z,13.89
2023-03-20T04:34:05.626Z,13.86
2023-03-20T04:35:05.646Z,13.83
2023-03-20T04:36:05.664Z,13.86
2023-03-20T04:37:05.620Z,13.71
2023-03-20T04:38:05.597Z,13.68
2023-03-20T04:39:05.581Z,13.60
2023-03-20T04:40:05.599Z,13.65
2023-03-20T04:41:05.659Z,13.68
2023-03-20T04:42:05.600Z,13.56
2023-03-20T04:43:05.558Z,13.50
2023-03-20T04:44:05.516Z,13.49
2023-03-20T04:45:05.551Z,13.38
2023-03-20T04:46:05.588Z,13.39
2023-03-20T04:47:05.608Z,13.53
2023-03-20T04:48:05.470Z,13.57
2023-03-20T04:49:05.470Z,13.54
2023-03-20T04:50:05.450Z,13.53
2023-03-20T04:51:05.439Z,13.44
2023-03-20T04:52:05.428Z,13.38
2023-03-20T04:53:05.460Z,13.38
2023-03-20T04:54:05.406Z,13.46
2023-03-20T04:55:05.402Z,13.49
2023-03-20T04:56:05.378Z,13.33
2023-03-20T04:57:05.372Z,13.31
2023-03-20T04:58:05.396Z,13.35
2023-03-20T04:59:05.381Z,13.33
2023-03-20T05:00:05.328Z,13.33
2023-03-20T05:01:05.355Z,13.39
2023-03-20T05:02:05.338Z,13.38
2023-03-20T05:03:05.295Z,13.38
2023-03-20T05:04:05.368Z,13.42
2023-03-20T05:05:05.282Z,13.41
2023-03-20T05:06:05.269Z,13.37
2023-03-20T05:07:05.257Z,13.31
2023-03-20T05:08:05.237Z,13.30
2023-03-20T05:09:05.230Z,13.30
2023-03-20T05:10:05.236Z,13.37
2023-03-20T05:11:05.206Z,13.33
2023-03-20T05:12:05.191Z,13.20
2023-03-20T05:13:05.195Z,13.15
2023-03-20T05:14:05.192Z,13.15
2023-03-20T05:15:05.195Z,13.16
2023-03-20T05:16:05.145Z,13.15
2023-03-20T05:17:05.181Z,13.18
2023-03-20T05:18:05.134Z,13.23
2023-03-20T05:19:05.135Z,13.20
2023-03-20T05:20:05.108Z,13.09
2023-03-20T05:21:05.131Z,13.05
2023-03-20T05:22:05.075Z,13.05
2023-03-20T05:23:06.366Z,13.01
2023-03-20T05:24:05.055Z,12.94
2023-03-20T05:25:05.043Z,12.98
2023-03-20T05:26:05.055Z,13.03
2023-03-20T05:27:05.044Z,12.98
2023-03-20T05:28:05.004Z,13.08
2023-03-20T05:29:04.997Z,13.08
2023-03-20T05:30:04.983Z,13.15
2023-03-20T05:31:05.069Z,13.12
2023-03-20T05:32:05.015Z,13.04
2023-03-20T05:33:05.025Z,13.08
2023-03-20T05:34:04.942Z,13.08
2023-03-20T05:35:05.215Z,12.97
2023-03-20T05:36:04.939Z,13.00
2023-03-20T05:37:04.911Z,13.00
2023-03-20T05:38:04.917Z,12.98
2023-03-20T05:39:04.884Z,12.87
2023-03-20T05:40:59.878Z,13.00
2023-03-20T05:41:59.866Z,13.04
2023-03-20T05:42:59.889Z,12.97
2023-03-20T05:43:59.840Z,12.86
2023-03-20T05:44:59.831Z,12.94
2023-03-20T05:45:59.868Z,13.00
2023-03-20T05:46:59.810Z,13.04
2023-03-20T05:47:59.814Z,12.79
2023-03-20T05:48:59.829Z,12.86
2023-03-20T05:49:59.783Z,12.91
2023-03-20T05:50:59.767Z,12.98
2023-03-20T05:51:59.761Z,13.11
2023-03-20T05:52:59.739Z,13.20
2023-03-20T05:53:59.734Z,13.28
2023-03-20T05:54:59.751Z,13.31
2023-03-20T05:55:59.715Z,13.35
2023-03-20T05:56:59.721Z,13.37
2023-03-20T05:57:59.689Z,13.38
2023-03-20T05:58:59.670Z,13.37
2023-03-20T05:59:59.694Z,13.44
2023-03-20T06:00:59.652Z,13.46
2023-03-20T06:01:59.641Z,13.49
2023-03-20T06:02:59.743Z,13.54
2023-03-20T06:03:59.706Z,13.44
2023-03-20T06:04:59.608Z,13.42
2023-03-20T06:05:59.652Z,13.44
2023-03-20T06:06:59.593Z,13.42
2023-03-20T06:07:59.580Z,13.37
2023-03-20T06:08:59.587Z,13.39
2023-03-20T06:09:59.558Z,13.38
2023-03-20T06:10:59.541Z,13.44
2023-03-20T06:11:59.582Z,13.46
2023-03-20T06:12:59.549Z,13.44
2023-03-20T06:13:59.514Z,13.37
2023-03-20T06:14:59.503Z,13.37
2023-03-20T06:15:59.508Z,13.44
2023-03-20T06:16:59.566Z,13.31
2023-03-20T06:17:59.471Z,13.22
2023-03-20T06:18:59.471Z,13.22
2023-03-20T06:19:59.446Z,13.27
2023-03-20T06:20:59.447Z,13.33
2023-03-20T06:21:59.423Z,13.33
2023-03-20T06:22:59.552Z,13.37
2023-03-20T06:23:59.394Z,13.39
2023-03-20T06:24:59.382Z,13.38
2023-03-20T06:25:59.376Z,13.35
2023-03-20T06:26:59.393Z,13.31
2023-03-20T06:27:59.354Z,13.35
2023-03-20T06:28:59.372Z,13.27
2023-03-20T06:29:59.331Z,13.11
2023-03-20T06:30:59.378Z,13.12
2023-03-20T06:31:59.311Z,13.11
2023-03-20T06:32:59.347Z,13.08
2023-03-20T06:33:59.287Z,13.04
2023-03-20T06:34:59.294Z,12.90
2023-03-20T06:35:59.289Z,12.93
2023-03-20T06:36:59.264Z,13.04
2023-03-20T06:37:59.241Z,13.01
2023-03-20T06:38:59.234Z,13.05
2023-03-20T06:39:59.250Z,13.11
2023-03-20T06:40:59.209Z,13.20
2023-03-20T06:41:59.198Z,13.19
2023-03-20T06:42:59.180Z,13.25
2023-03-20T06:43:59.173Z,13.30
2023-03-20T06:44:59.156Z,13.27
2023-03-20T06:45:59.275Z,13.33
2023-03-20T06:46:59.147Z,13.47
2023-03-20T06:47:59.128Z,13.47
2023-03-20T06:48:59.110Z,13.38
2023-03-20T06:49:59.125Z,13.50
2023-03-20T06:50:59.095Z,13.63
2023-03-20T06:51:59.410Z,13.62
2023-03-20T06:52:59.068Z,13.70
2023-03-20T06:53:59.064Z,13.77
2023-03-20T06:54:59.073Z,13.79
2023-03-20T06:55:59.043Z,13.72
2023-03-20T06:56:59.038Z,13.75
2023-03-20T06:57:59.061Z,13.79
2023-03-20T06:58:59.041Z,13.90
2023-03-20T06:59:59.101Z,13.93
2023-03-20T07:00:58.993Z,13.97
2023-03-20T07:01:59.066Z,13.92
2023-03-20T07:03:01.073Z,13.97
2023-03-20T07:03:58.985Z,13.97
2023-03-20T07:04:59.057Z,13.97
2023-03-20T07:05:58.927Z,14.03
2023-03-20T07:06:58.921Z,14.07
2023-03-20T07:07:58.929Z,14.04
2023-03-20T07:08:58.899Z,13.97
2023-03-20T07:09:58.924Z,13.90
2023-03-20T07:10:58.867Z,13.71
2023-03-20T07:11:58.862Z,13.68
2023-03-20T07:12:58.857Z,13.78
2023-03-20T07:13:58.836Z,13.86
2023-03-20T07:14:58.829Z,13.72
2023-03-20T07:16:04.630Z,13.72
2023-03-20T07:16:59.873Z,13.79
2023-03-20T07:17:58.793Z,13.89
2023-03-20T07:18:58.776Z,13.47
2023-03-20T07:19:58.784Z,13.50
2023-03-20T07:20:58.823Z,13.63
2023-03-20T07:21:58.782Z,13.68
2023-03-20T07:22:58.730Z,13.79
2023-03-20T07:23:58.726Z,13.78
2023-03-20T07:24:58.716Z,13.71
2023-03-20T07:25:58.714Z,13.85
2023-03-20T07:26:58.712Z,13.74
2023-03-20T07:27:58.676Z,13.67
2023-03-20T07:28:58.666Z,13.63
2023-03-20T07:29:58.660Z,13.57
2023-03-20T07:30:58.779Z,13.52
2023-03-20T07:31:58.688Z,13.54
2023-03-20T07:32:58.656Z,13.57
2023-03-20T07:33:58.621Z,13.53
2023-03-20T07:34:58.597Z,13.44
2023-03-20T07:35:58.638Z,13.52
2023-03-20T07:36:58.578Z,13.56
2023-03-20T07:37:58.638Z,13.63
2023-03-20T07:38:58.559Z,13.65
2023-03-20T07:39:58.544Z,13.70
2023-03-20T07:40:58.537Z,13.65
2023-03-20T07:41:58.522Z,13.70
2023-03-20T07:42:58.511Z,13.71
2023-03-20T07:43:58.532Z,13.75
2023-03-20T07:44:58.484Z,13.81
2023-03-20T07:45:58.520Z,13.81
2023-03-20T07:46:58.497Z,13.83
2023-03-20T07:47:58.489Z,13.92
2023-03-20T07:48:58.448Z,13.90
2023-03-20T07:49:58.483Z,13.77
2023-03-20T07:50:58.411Z,13.79
2023-03-20T07:51:58.411Z,13.79
2023-03-20T07:52:58.399Z,13.75
2023-03-20T07:53:58.384Z,13.71
2023-03-20T07:54:58.379Z,13.75
2023-03-20T07:55:58.413Z,13.81
2023-03-20T07:56:58.344Z,13.86
2023-03-20T07:57:58.342Z,13.92
2023-03-20T07:58:58.330Z,13.96
2023-03-20T07:59:58.310Z,13.87
2023-03-20T08:00:58.303Z,13.87
2023-03-20T08:01:58.341Z,13.79
2023-03-20T08:02:58.350Z,13.81
2023-03-20T08:03:58.569Z,13.85
2023-03-20T08:04:58.251Z,13.93
2023-03-20T08:05:58.251Z,13.97
2023-03-20T08:06:58.318Z,14.08
2023-03-20T08:07:58.262Z,14.10
2023-03-20T08:08:58.214Z,14.17
2023-03-20T08:09:58.208Z,14.08
2023-03-20T08:10:58.208Z,14.10
2023-03-20T08:11:58.202Z,14.23
2023-03-20T08:12:58.173Z,14.15
2023-03-20T08:13:58.189Z,14.26
2023-03-20T08:14:58.169Z,14.45
2023-03-20T08:15:58.153Z,14.55
2023-03-20T08:17:12.864Z,14.73
2023-03-20T08:17:59.113Z,14.86
2023-03-20T08:18:58.134Z,14.96
2023-03-20T08:19:58.098Z,15.15
2023-03-20T08:20:58.116Z,15.33
2023-03-20T08:21:58.069Z,15.43
2023-03-20T08:22:58.071Z,15.51
2023-03-20T08:23:58.058Z,15.58
2023-03-20T08:24:58.261Z,15.79
2023-03-20T08:25:58.025Z,15.83
2023-03-20T08:26:58.016Z,15.90
2023-03-20T08:27:58.019Z,15.91
2023-03-20T08:28:58.094Z,15.97
2023-03-20T08:29:57.988Z,15.88
2023-03-20T08:30:58.114Z,15.76
2023-03-20T08:31:57.969Z,15.72
2023-03-20T08:32:58.024Z,15.67
2023-03-20T08:33:57.940Z,15.65
2023-03-20T08:34:57.933Z,15.51
2023-03-20T08:35:58.027Z,15.46
2023-03-20T08:36:57.906Z,15.31
2023-03-20T08:37:57.890Z,15.33
2023-03-20T08:38:57.893Z,15.33
2023-03-20T08:39:57.879Z,15.37
2023-03-20T08:40:57.858Z,15.42
2023-03-20T08:41:59.598Z,15.35
2023-03-20T08:42:57.861Z,15.04
2023-03-20T08:43:57.837Z,14.96
2023-03-20T08:44:57.820Z,15.02
2023-03-20T08:45:57.817Z,15.04
2023-03-20T08:46:57.801Z,15.00
2023-03-20T08:47:57.818Z,15.07
2023-03-20T08:48:57.776Z,15.19
2023-03-20T08:49:57.798Z,15.28
2023-03-20T08:50:57.745Z,15.37
2023-03-20T08:51:57.736Z,15.49
2023-03-20T08:52:57.726Z,15.55
2023-03-20T08:53:57.750Z,15.64
2023-03-20T08:54:58.078Z,15.77
2023-03-20T08:55:57.687Z,15.75
2023-03-20T08:56:57.678Z,15.83
2023-03-20T08:57:57.676Z,15.88
2023-03-20T08:58:57.679Z,16.00
2023-03-20T08:59:57.686Z,16.12
2023-03-20T09:00:57.659Z,16.24
2023-03-20T09:01:57.863Z,16.39
2023-03-20T09:02:57.643Z,16.56
2023-03-20T09:03:57.596Z,16.69
2023-03-20T09:04:57.587Z,16.83
2023-03-20T09:05:57.814Z,17.11
2023-03-20T09:06:57.565Z,17.49
2023-03-20T09:07:57.545Z,17.70
2023-03-20T09:08:57.604Z,17.80
2023-03-20T09:09:57.526Z,18.10
2023-03-20T09:10:57.556Z,18.53
2023-03-20T09:11:57.505Z,18.95
2023-03-20T09:12:57.510Z,19.54
2023-03-20T09:13:57.484Z,19.99
2023-03-20T09:14:57.483Z,20.07
2023-03-20T09:15:57.512Z,20.04
2023-03-20T09:16:57.489Z,20.16
2023-03-20T09:17:57.439Z,20.55
2023-03-20T09:18:57.439Z,20.24
2023-03-20T09:19:57.421Z,19.82
2023-03-20T09:20:57.422Z,19.48
2023-03-20T09:21:57.396Z,19.24
2023-03-20T09:22:57.563Z,19.00
2023-03-20T09:23:57.371Z,18.95
2023-03-20T09:24:57.370Z,19.30
2023-03-20T09:25:57.359Z,19.54
2023-03-20T09:26:57.357Z,19.66
2023-03-20T09:27:57.318Z,19.70
2023-03-20T09:28:57.358Z,19.55
2023-03-20T09:29:57.302Z,19.14
2023-03-20T09:30:57.352Z,19.09
2023-03-20T09:31:57.322Z,18.86
2023-03-20T09:32:57.288Z,18.47
2023-03-20T09:33:57.252Z,18.23
2023-03-20T09:34:57.421Z,18.04
2023-03-20T09:35:57.293Z,17.95
2023-03-20T09:36:57.244Z,17.71
2023-03-20T09:37:57.212Z,17.65
2023-03-20T09:38:57.216Z,17.65
2023-03-20T09:39:57.237Z,17.85
2023-03-20T09:40:57.215Z,18.05
2023-03-20T09:41:57.855Z,18.29
2023-03-20T09:42:57.152Z,18.49
2023-03-20T09:43:57.134Z,18.60
2023-03-20T09:44:57.132Z,18.77
2023-03-20T09:45:57.178Z,18.88
2023-03-20T09:47:08.736Z,18.96
2023-03-20T09:47:58.091Z,18.99
2023-03-20T09:48:57.084Z,18.89
2023-03-20T09:49:57.067Z,18.78
2023-03-20T09:50:57.080Z,18.58
2023-03-20T09:51:57.060Z,18.70
2023-03-20T09:52:57.032Z,18.78
2023-03-20T09:53:58.155Z,18.89
2023-03-20T09:54:57.014Z,18.81
2023-03-20T09:55:57.055Z,18.81
2023-03-20T09:56:57.058Z,18.95
2023-03-20T09:57:56.972Z,19.07
2023-03-20T09:58:56.983Z,19.14
2023-03-20T09:59:56.963Z,19.34
2023-03-20T10:00:56.942Z,19.41
2023-03-20T10:01:56.950Z,19.34
2023-03-20T10:02:56.967Z,19.33
2023-03-20T10:03:56.907Z,19.40
2023-03-20T10:04:56.920Z,19.40
2023-03-20T10:05:56.877Z,19.58
2023-03-20T10:06:56.892Z,19.56
2023-03-20T10:07:56.888Z,19.40
2023-03-20T10:08:56.906Z,19.00
2023-03-20T10:09:56.842Z,18.73
2023-03-20T10:10:56.838Z,18.98
2023-03-20T10:11:56.809Z,19.09
2023-03-20T10:12:56.804Z,19.22
2023-03-20T10:13:56.789Z,19.31
2023-03-20T10:14:56.848Z,19.55
2023-03-20T10:15:56.836Z,19.67
2023-03-20T10:16:56.786Z,19.59
2023-03-20T10:17:56.746Z,19.63
2023-03-20T10:18:56.734Z,19.55
2023-03-20T10:19:56.723Z,19.63
2023-03-20T10:20:57.124Z,19.67
2023-03-20T10:21:56.694Z,19.64
2023-03-20T10:22:56.684Z,19.58
2023-03-20T10:23:56.684Z,19.54
2023-03-20T10:24:56.676Z,19.45
2023-03-20T10:25:56.656Z,19.29
2023-03-20T10:26:56.714Z,19.22
2023-03-20T10:27:56.635Z,19.12
2023-03-20T10:28:56.616Z,18.96
2023-03-20T10:29:56.606Z,18.74
2023-03-20T10:30:56.606Z,18.59
2023-03-20T10:31:56.660Z,18.37
2023-03-20T10:32:56.594Z,18.15
2023-03-20T10:33:56.601Z,17.97
2023-03-20T10:34:56.558Z,17.86
2023-03-20T10:35:56.632Z,18.01
2023-03-20T10:36:56.543Z,17.97
2023-03-20T10:37:56.581Z,17.90
2023-03-20T10:38:56.514Z,17.86
2023-03-20T10:39:56.535Z,17.86
2023-03-20T10:40:56.490Z,18.07
2023-03-20T10:41:56.490Z,18.26
2023-03-20T10:42:56.466Z,18.35
2023-03-20T10:43:56.485Z,18.35
2023-03-20T10:44:56.449Z,18.37
2023-03-20T10:45:56.425Z,18.20
2023-03-20T10:46:56.519Z,18.22
2023-03-20T10:47:56.540Z,18.13
2023-03-20T10:48:56.397Z,18.08
2023-03-20T10:49:56.447Z,18.04
2023-03-20T10:50:56.398Z,17.76
2023-03-20T10:51:56.357Z,17.70
2023-03-20T10:52:56.387Z,17.64
2023-03-20T10:53:56.340Z,17.01
2023-03-20T10:54:56.396Z,17.06
2023-03-20T10:55:56.407Z,17.24
2023-03-20T10:56:56.326Z,17.44
2023-03-20T10:57:56.308Z,17.38
2023-03-20T10:58:56.298Z,17.30
2023-03-20T10:59:56.323Z,17.52
2023-03-20T11:00:56.348Z,17.71
2023-03-20T11:01:56.317Z,17.82
2023-03-20T11:02:56.286Z,17.98
2023-03-20T11:03:56.351Z,18.18
2023-03-20T11:04:56.242Z,18.07
2023-03-20T11:06:08.985Z,17.90
2023-03-20T11:06:57.246Z,17.80
2023-03-20T11:07:56.182Z,17.82
2023-03-20T11:08:56.184Z,17.68
2023-03-20T11:09:56.164Z,17.70
2023-03-20T11:10:57.268Z,17.78
2023-03-20T11:11:56.296Z,17.79
2023-03-20T11:12:56.137Z,17.59
2023-03-20T11:13:56.128Z,17.60
2023-03-20T11:14:56.107Z,17.63
2023-03-20T11:15:56.094Z,17.74
2023-03-20T11:16:56.184Z,17.67
2023-03-20T11:17:56.109Z,17.49
2023-03-20T11:18:56.082Z,17.27
2023-03-20T11:19:56.055Z,17.23
2023-03-20T11:20:56.055Z,17.02
2023-03-20T11:21:56.035Z,17.20
2023-03-20T11:22:56.027Z,17.36
2023-03-20T11:23:56.032Z,17.38
2023-03-20T11:24:56.006Z,17.49
2023-03-20T11:25:55.983Z,17.46
2023-03-20T11:26:55.976Z,17.34
2023-03-20T11:27:55.965Z,17.51
2023-03-20T11:28:56.143Z,17.60
2023-03-20T11:29:55.937Z,17.57
2023-03-20T11:31:04.541Z,17.60
2023-03-20T11:31:56.934Z,17.76
2023-03-20T11:32:55.947Z,18.08
2023-03-20T11:33:55.893Z,18.22
2023-03-20T11:34:55.941Z,18.19
2023-03-20T11:35:55.911Z,18.33
2023-03-20T11:37:08.774Z,18.37
2023-03-20T11:37:56.849Z,18.47
2023-03-20T11:38:55.857Z,18.62
2023-03-20T11:39:55.827Z,18.75
2023-03-20T11:40:55.854Z,18.78
2023-03-20T11:41:55.809Z,18.93
2023-03-20T11:42:55.842Z,18.89
2023-03-20T11:43:55.775Z,19.07
2023-03-20T11:44:55.763Z,19.12
2023-03-20T11:45:55.817Z,19.08
2023-03-20T11:46:55.766Z,19.15
2023-03-20T11:47:55.726Z,19.18
2023-03-20T11:48:55.734Z,19.29
2023-03-20T11:50:02.753Z,19.40
2023-03-20T11:50:58.325Z,19.11
2023-03-20T11:51:55.715Z,18.73
2023-03-20T11:52:55.674Z,18.63
2023-03-20T11:53:55.664Z,18.65
2023-03-20T11:54:55.659Z,18.66
2023-03-20T11:55:55.641Z,18.78
2023-03-20T11:56:55.650Z,18.96
2023-03-20T11:57:55.642Z,19.08
2023-03-20T11:58:55.609Z,19.34
2023-03-20T11:59:55.604Z,19.58
2023-03-20T12:00:55.591Z,19.64
2023-03-20T12:01:55.580Z,19.54
2023-03-20T12:02:55.650Z,19.48
2023-03-20T12:03:55.739Z,19.30
2023-03-20T12:04:55.540Z,19.27
2023-03-20T12:05:55.533Z,19.41
2023-03-20T12:06:55.519Z,19.62
2023-03-20T12:07:55.531Z,19.66
2023-03-20T12:08:55.530Z,19.77
2023-03-20T12:09:55.568Z,19.88
2023-03-20T12:10:55.520Z,20.02
2023-03-20T12:11:55.483Z,20.10
2023-03-20T12:12:55.464Z,20.18
2023-03-20T12:13:55.464Z,20.03
2023-03-20T12:14:55.507Z,19.96
2023-03-20T12:15:55.425Z,19.86
2023-03-20T12:16:55.427Z,19.71
2023-03-20T12:17:55.400Z,19.67
2023-03-20T12:18:55.399Z,19.49
2023-03-20T12:19:55.401Z,19.52
2023-03-20T12:20:55.369Z,19.48
2023-03-20T12:21:55.369Z,19.48
2023-03-20T12:22:55.343Z,19.31
2023-03-20T12:23:55.325Z,19.37
2023-03-20T12:24:55.323Z,19.36
2023-03-20T12:25:55.345Z,19.04
2023-03-20T12:26:55.295Z,19.11
2023-03-20T12:27:55.284Z,19.04
2023-03-20T12:28:55.285Z,19.02
2023-03-20T12:29:55.269Z,19.18
2023-03-20T12:30:57.027Z,19.37
2023-03-20T12:31:55.235Z,19.44
2023-03-20T12:32:55.243Z,19.26
2023-03-20T12:33:55.214Z,19.18
2023-03-20T12:34:55.205Z,18.78
2023-03-20T12:35:55.199Z,18.99
2023-03-20T12:36:55.196Z,18.98
2023-03-20T12:37:55.165Z,19.19
2023-03-20T12:38:55.170Z,19.16
2023-03-20T12:39:55.146Z,19.19
2023-03-20T12:40:55.144Z,19.21
2023-03-20T12:41:55.164Z,19.27
2023-03-20T12:42:55.107Z,19.41
2023-03-20T12:43:55.103Z,19.31
2023-03-20T12:44:55.088Z,19.36
2023-03-20T12:45:55.077Z,19.44
2023-03-20T12:46:55.080Z,19.34
2023-03-20T12:47:55.094Z,19.48
2023-03-20T12:48:55.049Z,19.47
2023-03-20T12:49:55.080Z,19.70
2023-03-20T12:50:55.028Z,19.92
2023-03-20T12:51:55.011Z,20.02
2023-03-20T12:52:55.032Z,19.86